createdAt,value
2023-02-17T00:01:34.287Z,88.73
2023-02-17T00:04:02.889Z,88.65
2023-02-17T00:06:32.417Z,88.41
2023-02-17T00:09:01.991Z,88.59
2023-02-17T00:11:30.770Z,88.73
2023-02-17T00:14:00.558Z,88.57
2023-02-17T00:16:29.515Z,88.42
2023-02-17T00:19:02.258Z,88.66
2023-02-17T00:21:31.852Z,88.36
2023-02-17T00:24:00.505Z,88.66
2023-02-17T00:26:29.235Z,88.42
2023-02-17T00:28:59.278Z,88.58
2023-02-17T00:31:27.654Z,88.50
2023-02-17T00:33:56.649Z,88.26
2023-02-17T00:36:26.238Z,88.87
2023-02-17T00:38:56.970Z,88.58
2023-02-17T00:41:29.094Z,88.30
2023-02-17T00:43:59.662Z,88.30
2023-02-17T00:46:28.096Z,88.15
2023-02-17T00:48:56.133Z,88.40
2023-02-17T00:51:25.514Z,88.31
2023-02-17T00:53:53.377Z,88.24
2023-02-17T00:56:21.382Z,87.97
2023-02-17T00:58:49.277Z,88.13
2023-02-17T01:01:18.134Z,87.93
2023-02-17T01:03:46.380Z,88.08
2023-02-17T01:06:24.329Z,88.26
2023-02-17T01:08:53.397Z,87.76
2023-02-17T01:11:28.186Z,87.96
2023-02-17T01:13:58.956Z,87.82
2023-02-17T01:16:30.842Z,87.92
2023-02-17T01:19:00.789Z,88.00
2023-02-17T01:21:30.233Z,87.72
2023-02-17T01:24:00.550Z,87.72
2023-02-17T01:26:31.598Z,87.83
2023-02-17T01:29:04.122Z,87.74
2023-02-17T01:31:32.686Z,87.98
2023-02-17T01:34:03.939Z,87.87
2023-02-17T01:36:32.769Z,87.75
2023-02-17T01:39:01.151Z,87.81
2023-02-17T01:41:29.750Z,87.82
2023-02-17T01:44:16.746Z,87.78
2023-02-17T01:46:47.989Z,87.88
2023-02-17T01:49:38.011Z,87.90
2023-02-17T01:52:21.274Z,87.90
2023-02-17T01:54:55.334Z,88.09
2023-02-17T01:57:27.400Z,87.85
2023-02-17T01:59:56.154Z,87.91
2023-02-17T02:02:24.370Z,87.69
2023-02-17T02:04:54.734Z,88.03
2023-02-17T02:07:33.289Z,87.72
2023-02-17T02:10:03.010Z,87.66
2023-02-17T02:12:35.457Z,87.42
2023-02-17T02:15:09.383Z,87.50
2023-02-17T02:18:16.166Z,87.38
2023-02-17T02:21:07.908Z,87.46
2023-02-17T02:24:04.860Z,87.16
2023-02-17T02:27:00.117Z,87.34
2023-02-17T02:29:57.731Z,87.38
2023-02-17T02:32:49.690Z,87.29
2023-02-17T02:35:26.848Z,87.12
2023-02-17T02:38:09.632Z,87.10
2023-02-17T02:40:44.684Z,87.18
2023-02-17T02:43:14.846Z,87.00
2023-02-17T02:45:43.154Z,86.99
2023-02-17T02:48:11.238Z,87.12
2023-02-17T02:50:59.033Z,87.05
2023-02-17T02:54:07.703Z,86.92
2023-02-17T02:56:58.126Z,86.77
2023-02-17T02:59:35.202Z,86.68
2023-02-17T03:02:17.644Z,86.92
2023-02-17T03:04:59.477Z,86.75
2023-02-17T03:07:55.650Z,86.83
2023-02-17T03:23:43.985Z,86.63
2023-02-17T03:26:12.028Z,86.85
2023-02-17T03:28:40.972Z,86.60
2023-02-17T03:31:09.000Z,86.93
2023-02-17T03:33:36.980Z,86.88
2023-02-17T03:36:05.413Z,86.55
2023-02-17T03:38:33.470Z,86.71
2023-02-17T03:41:01.321Z,86.58
2023-02-17T03:43:29.161Z,86.39
2023-02-17T03:45:57.066Z,86.72
2023-02-17T03:48:24.929Z,86.94
2023-02-17T03:50:52.774Z,87.18
2023-02-17T03:53:20.801Z,87.11
2023-02-17T03:55:48.592Z,87.03
2023-02-17T03:58:16.798Z,86.91
2023-02-17T04:00:44.600Z,87.22
2023-02-17T04:03:12.441Z,87.21
2023-02-17T04:05:40.247Z,87.43
2023-02-17T04:08:08.414Z,87.50
2023-02-17T04:10:36.223Z,87.39
2023-02-17T04:13:04.127Z,87.72
2023-02-17T04:15:32.518Z,87.84
2023-02-17T04:18:00.323Z,88.04
2023-02-17T04:20:28.340Z,87.93
2023-02-17T04:22:56.291Z,87.61
2023-02-17T04:25:24.339Z,87.96
2023-02-17T04:27:52.128Z,87.92
2023-02-17T04:30:22.171Z,88.10
2023-02-17T04:37:22.061Z,88.23
2023-02-17T04:39:49.888Z,88.40
2023-02-17T04:42:17.982Z,88.14
2023-02-17T04:44:45.896Z,87.91
2023-02-17T04:47:13.781Z,88.16
2023-02-17T04:49:41.721Z,88.12
2023-02-17T04:52:09.592Z,88.38
2023-02-17T04:54:37.702Z,88.32
2023-02-17T04:57:05.631Z,88.25
2023-02-17T04:59:33.588Z,88.36
2023-02-17T05:02:01.401Z,88.16
2023-02-17T05:04:29.591Z,88.40
2023-02-17T05:06:57.360Z,88.35
2023-02-17T05:09:25.437Z,88.53
2023-02-17T05:11:53.325Z,88.39
2023-02-17T05:14:21.336Z,88.50
2023-02-17T05:16:49.213Z,88.60
2023-02-17T05:19:17.109Z,88.69
2023-02-17T05:21:45.008Z,88.56
2023-02-17T05:24:13.031Z,88.73
2023-02-17T05:26:40.990Z,89.01
2023-02-17T05:29:08.897Z,88.92
2023-02-17T05:31:37.152Z,88.83
2023-02-17T05:34:05.143Z,89.01
2023-02-17T05:36:32.928Z,88.85
2023-02-17T05:39:00.829Z,88.87
2023-02-17T05:41:28.806Z,88.75
2023-02-17T05:43:56.731Z,88.79
2023-02-17T05:46:24.553Z,88.71
2023-02-17T05:48:52.378Z,88.86
2023-02-17T05:51:20.243Z,88.79
2023-02-17T05:58:21.690Z,88.99
2023-02-17T06:00:49.729Z,89.09
2023-02-17T06:03:17.641Z,89.27
2023-02-17T06:05:45.976Z,89.14
2023-02-17T06:12:48.247Z,89.04
2023-02-17T06:15:16.208Z,89.12
2023-02-17T06:22:19.528Z,88.95
2023-02-17T06:24:47.455Z,88.74
2023-02-17T06:27:15.354Z,89.08
2023-02-17T06:29:44.705Z,89.19
2023-02-17T06:32:12.606Z,88.86
2023-02-17T06:34:40.370Z,88.86
2023-02-17T06:37:08.243Z,88.78
2023-02-17T06:39:36.025Z,88.72
2023-02-17T06:42:04.099Z,88.63
2023-02-17T06:44:31.894Z,88.74
2023-02-17T06:46:59.903Z,88.86
2023-02-17T06:49:27.889Z,88.77
2023-02-17T06:51:55.712Z,88.75
2023-02-17T06:54:23.533Z,88.67
2023-02-17T06:56:51.379Z,88.38
2023-02-17T06:59:19.190Z,88.16
2023-02-17T07:01:49.468Z,88.31
2023-02-17T07:04:17.710Z,88.10
2023-02-17T07:06:45.566Z,87.88
2023-02-17T07:09:14.011Z,87.84
2023-02-17T07:11:42.832Z,87.62
2023-02-17T07:14:11.029Z,87.82
2023-02-17T07:16:39.626Z,87.91
2023-02-17T07:19:07.526Z,87.65
2023-02-17T07:21:36.125Z,87.55
2023-02-17T07:24:04.112Z,87.40
2023-02-17T07:26:32.027Z,87.62
2023-02-17T07:29:01.251Z,87.68
2023-02-17T07:31:29.218Z,87.56
2023-02-17T07:33:57.482Z,87.25
2023-02-17T07:36:25.332Z,87.06
2023-02-17T07:38:53.262Z,86.86
2023-02-17T07:41:24.712Z,86.87
2023-02-17T07:43:57.377Z,86.57
2023-02-17T07:46:26.636Z,86.39
2023-02-17T07:48:57.866Z,86.03
2023-02-17T07:51:26.877Z,85.87
2023-02-17T07:53:55.075Z,85.62
2023-02-17T07:56:23.544Z,85.64
2023-02-17T07:58:51.870Z,85.42
2023-02-17T08:01:25.393Z,84.79
2023-02-17T08:03:53.728Z,84.64
2023-02-17T08:06:24.041Z,84.04
2023-02-17T08:09:11.773Z,83.85
2023-02-17T08:11:59.341Z,83.65
2023-02-17T08:14:29.884Z,83.29
2023-02-17T08:16:59.913Z,82.53
2023-02-17T08:19:39.487Z,82.57
2023-02-17T08:22:16.069Z,82.39
2023-02-17T08:24:45.194Z,81.97
2023-02-17T08:27:15.294Z,82.08
2023-02-17T08:29:44.915Z,81.92
2023-02-17T08:32:14.858Z,81.54
2023-02-17T08:34:43.422Z,81.15
2023-02-17T08:37:11.645Z,80.99
2023-02-17T08:39:39.942Z,80.91
2023-02-17T08:42:07.934Z,80.92
2023-02-17T08:44:37.952Z,80.95
2023-02-17T08:47:10.957Z,80.63
2023-02-17T08:49:43.031Z,80.54
2023-02-17T08:52:13.003Z,80.50
2023-02-17T08:54:43.950Z,80.51
2023-02-17T08:57:15.961Z,80.33
2023-02-17T08:59:51.033Z,79.85
2023-02-17T09:02:22.984Z,79.03
2023-02-17T09:04:55.015Z,79.31
2023-02-17T09:07:26.467Z,79.20
2023-02-17T09:09:58.975Z,79.35
2023-02-17T09:12:30.980Z,79.07
2023-02-17T09:15:02.018Z,79.02
2023-02-17T09:17:34.068Z,78.98
2023-02-17T09:20:11.216Z,79.24
2023-02-17T09:22:46.988Z,79.50
2023-02-17T09:25:19.049Z,79.68
2023-02-17T09:27:51.021Z,80.10
2023-02-17T09:30:22.094Z,80.15
2023-02-17T09:32:54.004Z,80.24
2023-02-17T09:35:27.013Z,80.18
2023-02-17T09:37:58.008Z,79.81
2023-02-17T09:41:05.391Z,79.99
2023-02-17T09:43:35.513Z,79.85
2023-02-17T09:52:31.992Z,79.14
2023-02-17T09:55:06.165Z,78.73
2023-02-17T09:57:39.630Z,79.02
2023-02-17T10:00:14.509Z,78.70
2023-02-17T10:02:55.106Z,78.63
2023-02-17T10:05:28.154Z,78.67
2023-02-17T10:08:13.048Z,78.39
2023-02-17T10:10:56.923Z,78.08
2023-02-17T10:13:27.722Z,78.19
2023-02-17T10:16:03.345Z,78.36
2023-02-17T10:18:39.804Z,78.35
2023-02-17T10:21:13.317Z,78.28
2023-02-17T10:23:41.425Z,78.41
2023-02-17T10:26:35.081Z,78.56
2023-02-17T10:29:14.650Z,78.63
2023-02-17T10:31:46.931Z,78.88
2023-02-17T10:34:37.282Z,79.11
2023-02-17T10:37:15.122Z,79.46
2023-02-17T10:39:52.448Z,79.81
2023-02-17T10:42:30.264Z,80.04
2023-02-17T10:45:18.905Z,80.25
2023-02-17T10:47:47.448Z,80.40
2023-02-17T10:50:22.474Z,80.77
2023-02-17T10:52:53.462Z,81.10
2023-02-17T10:55:25.796Z,81.44
2023-02-17T10:58:20.420Z,82.18
2023-02-17T11:00:53.881Z,82.00
2023-02-17T11:03:24.741Z,82.06
2023-02-17T11:06:01.901Z,82.10
2023-02-17T11:08:56.945Z,82.48
2023-02-17T11:11:30.712Z,82.91
2023-02-17T11:14:20.838Z,83.08
2023-02-17T11:16:59.345Z,83.38
2023-02-17T11:19:27.632Z,83.19
2023-02-17T11:21:58.795Z,83.55
2023-02-17T11:24:28.362Z,83.61
2023-02-17T11:27:00.810Z,83.45
2023-02-17T11:29:30.188Z,83.73
2023-02-17T11:32:11.238Z,83.87
2023-02-17T11:34:42.230Z,83.81
2023-02-17T11:37:13.314Z,83.86
2023-02-17T11:39:44.169Z,84.03
2023-02-17T11:42:17.164Z,83.92
2023-02-17T11:44:45.926Z,83.96
2023-02-17T11:47:32.604Z,83.85
2023-02-17T11:50:38.904Z,83.67
2023-02-17T11:53:08.310Z,83.22
2023-02-17T11:55:59.665Z,83.05
2023-02-17T11:58:59.918Z,82.88
2023-02-17T12:01:52.386Z,83.03
2023-02-17T12:04:39.095Z,82.85
2023-02-17T12:07:20.540Z,82.89
2023-02-17T12:10:12.202Z,83.13
2023-02-17T12:13:01.584Z,83.26
2023-02-17T12:15:44.820Z,83.32
2023-02-17T12:18:34.783Z,83.47
2023-02-17T12:21:48.774Z,83.06
2023-02-17T12:24:48.553Z,83.25
2023-02-17T12:27:51.641Z,83.12
2023-02-17T12:30:50.792Z,83.12
2023-02-17T12:33:43.180Z,83.63
2023-02-17T12:36:14.748Z,83.58
2023-02-17T12:38:53.403Z,83.73
2023-02-17T12:41:29.609Z,83.85
2023-02-17T12:44:02.793Z,84.04
2023-02-17T12:46:44.298Z,84.07
2023-02-17T12:49:37.545Z,83.97
2023-02-17T12:52:19.749Z,84.11
2023-02-17T12:55:20.930Z,84.14
2023-02-17T12:57:56.015Z,84.23
2023-02-17T13:00:30.465Z,84.20
2023-02-17T13:02:59.752Z,84.38
2023-02-17T13:05:40.113Z,84.48
2023-02-17T13:08:22.644Z,84.82
2023-02-17T13:11:02.030Z,84.90
2023-02-17T13:13:32.763Z,85.06
2023-02-17T13:16:13.398Z,85.31
2023-02-17T13:18:43.918Z,85.47
2023-02-17T13:21:31.896Z,85.71
2023-02-17T13:24:13.015Z,85.63
2023-02-17T13:26:43.076Z,85.95
2023-02-17T13:29:32.334Z,86.06
2023-02-17T13:32:05.213Z,86.47
2023-02-17T13:34:42.507Z,86.63
2023-02-17T13:37:34.062Z,86.70
2023-02-17T13:40:29.801Z,86.96
2023-02-17T13:42:59.551Z,87.43
2023-02-17T13:45:29.971Z,87.41
2023-02-17T13:48:01.171Z,87.40
2023-02-17T13:50:39.581Z,87.64
2023-02-17T13:53:27.788Z,87.76
2023-02-17T13:56:02.065Z,88.03
2023-02-17T13:58:40.056Z,87.90
2023-02-17T14:01:20.843Z,88.16
2023-02-17T14:03:52.362Z,88.41
2023-02-17T14:06:41.073Z,88.29
2023-02-17T14:09:33.215Z,88.26
2023-02-17T14:12:04.467Z,88.62
2023-02-17T14:14:36.153Z,88.68
2023-02-17T14:17:09.357Z,88.73
2023-02-17T14:19:46.241Z,88.59
2023-02-17T14:22:31.100Z,89.09
2023-02-17T14:25:20.885Z,89.12
2023-02-17T14:27:51.114Z,89.32
2023-02-17T14:30:34.005Z,89.44
2023-02-17T14:33:08.906Z,89.24
2023-02-17T14:35:39.592Z,89.44
2023-02-17T14:38:10.505Z,89.43
2023-02-17T14:40:40.173Z,89.54
2023-02-17T14:43:08.207Z,89.66
2023-02-17T14:45:36.156Z,89.83
2023-02-17T14:48:04.445Z,89.96
2023-02-17T14:50:34.706Z,89.96
2023-02-17T14:53:02.542Z,89.95
2023-02-17T14:55:39.009Z,90.12
2023-02-17T14:58:06.910Z,90.23
2023-02-17T15:00:35.146Z,90.11
2023-02-17T15:03:03.064Z,90.25
2023-02-17T15:05:32.015Z,90.31
2023-02-17T15:08:01.602Z,90.21
2023-02-17T15:10:29.895Z,90.36
2023-02-17T15:12:58.170Z,90.41
2023-02-17T15:15:26.058Z,90.54
2023-02-17T15:17:53.903Z,90.70
2023-02-17T15:20:21.869Z,90.98
2023-02-17T15:22:52.986Z,90.93
2023-02-17T15:25:24.468Z,91.06
2023-02-17T15:27:52.680Z,91.02
2023-02-17T15:30:21.587Z,91.20
2023-02-17T15:32:49.601Z,91.40
2023-02-17T15:35:23.699Z,91.46
2023-02-17T15:37:52.215Z,91.72
2023-02-17T15:40:24.965Z,91.83
2023-02-17T15:43:01.516Z,91.95
2023-02-17T15:45:30.962Z,92.09
2023-02-17T15:48:07.917Z,92.43
2023-02-17T15:50:35.884Z,92.55
2023-02-17T15:53:03.768Z,92.62
2023-02-17T15:55:33.995Z,92.73
2023-02-17T15:58:05.421Z,92.99
2023-02-17T16:00:35.528Z,92.90
2023-02-17T16:03:03.753Z,93.04
2023-02-17T16:05:33.729Z,93.02
2023-02-17T16:08:01.534Z,93.22
2023-02-17T16:10:30.483Z,93.31
2023-02-17T16:13:01.216Z,93.36
2023-02-17T16:15:32.105Z,93.47
2023-02-17T16:18:00.234Z,93.39
2023-02-17T16:20:34.662Z,93.72
2023-02-17T16:23:03.623Z,93.89
2023-02-17T16:25:31.537Z,93.87
2023-02-17T16:28:00.132Z,93.98
2023-02-17T16:30:34.714Z,94.19
2023-02-17T16:33:03.611Z,94.22
2023-02-17T16:35:33.241Z,94.34
2023-02-17T16:38:22.749Z,94.46
2023-02-17T16:40:52.677Z,94.49
2023-02-17T16:43:23.916Z,94.47
2023-02-17T16:45:56.986Z,94.38
2023-02-17T16:48:27.860Z,94.86
2023-02-17T16:50:56.429Z,94.91
2023-02-17T16:53:24.847Z,95.04
2023-02-17T16:55:55.297Z,95.28
2023-02-17T16:58:27.740Z,95.21
2023-02-17T17:07:37.192Z,95.31
2023-02-17T17:10:17.605Z,95.45
2023-02-17T17:12:47.252Z,95.36
2023-02-17T17:15:17.669Z,95.50
2023-02-17T17:17:52.989Z,95.59
2023-02-17T17:20:32.065Z,95.86
2023-02-17T17:23:02.056Z,95.77
2023-02-17T17:25:32.128Z,95.91
2023-02-17T17:28:00.054Z,95.83
2023-02-17T17:30:35.659Z,96.14
2023-02-17T17:33:03.925Z,96.15
2023-02-17T17:35:32.503Z,96.32
2023-02-17T17:38:00.458Z,96.21
2023-02-17T17:40:48.444Z,96.39
2023-02-17T17:43:21.950Z,96.28
2023-02-17T17:45:51.313Z,96.46
2023-02-17T17:48:19.487Z,96.53
2023-02-17T17:50:49.607Z,96.59
2023-02-17T17:53:17.501Z,96.59
2023-02-17T17:55:47.817Z,96.74
2023-02-17T17:58:17.410Z,96.77
2023-02-17T18:00:45.630Z,96.73
2023-02-17T18:03:13.735Z,96.89
2023-02-17T18:05:58.598Z,96.90
2023-02-17T18:08:27.776Z,97.00
2023-02-17T18:10:55.870Z,96.99
2023-02-17T18:13:25.067Z,97.01
2023-02-17T18:15:53.833Z,97.06
2023-02-17T18:18:22.746Z,97.27
2023-02-17T18:20:51.331Z,97.29
2023-02-17T18:23:19.215Z,97.57
2023-02-17T18:25:47.268Z,97.79
2023-02-17T18:28:15.244Z,97.84
2023-02-17T18:30:43.546Z,98.10
2023-02-17T18:33:11.528Z,98.44
2023-02-17T18:35:40.267Z,98.50
2023-02-17T18:38:08.160Z,98.66
2023-02-17T18:40:39.640Z,98.55
2023-02-17T18:43:09.185Z,98.88
2023-02-17T18:45:37.000Z,98.87
2023-02-17T18:48:04.934Z,99.06
2023-02-17T18:50:33.127Z,99.14
2023-02-17T18:53:03.620Z,99.29
2023-02-17T18:55:33.035Z,99.58
2023-02-17T18:58:00.891Z,99.98
2023-02-17T19:00:29.049Z,99.91
2023-02-17T19:02:56.962Z,99.94
2023-02-17T19:05:28.775Z,99.97
2023-02-17T19:07:56.586Z,100.00
2023-02-17T19:10:24.450Z,100.00
2023-02-17T19:12:52.307Z,100.00
2023-02-17T19:15:21.129Z,100.00
2023-02-17T19:17:49.065Z,100.00
2023-02-17T19:20:17.231Z,100.00
2023-02-17T19:22:45.385Z,100.00
2023-02-17T19:25:13.245Z,100.00
2023-02-17T19:27:42.129Z,100.00
2023-02-17T19:30:11.381Z,100.00
2023-02-17T19:32:39.519Z,100.00
2023-02-17T19:35:09.989Z,100.00
2023-02-17T19:37:39.337Z,100.00
2023-02-17T19:40:07.917Z,100.00
2023-02-17T19:42:36.594Z,100.00
2023-02-17T19:45:04.993Z,100.00
2023-02-17T19:47:32.993Z,100.00
2023-02-17T19:50:00.881Z,100.00
2023-02-17T19:52:28.817Z,100.00
2023-02-17T19:54:56.845Z,100.00
2023-02-17T19:57:24.850Z,100.00
2023-02-17T19:59:52.799Z,100.00
2023-02-17T20:02:20.733Z,100.00
2023-02-17T20:04:48.656Z,100.00
2023-02-17T20:07:16.500Z,100.00
2023-02-17T20:09:44.322Z,100.00
2023-02-17T20:12:12.169Z,100.00
2023-02-17T20:14:39.994Z,100.00
2023-02-17T20:17:08.518Z,100.00
2023-02-17T20:19:38.552Z,100.00
2023-02-17T20:22:08.088Z,100.00
2023-02-17T20:24:37.556Z,100.00
2023-02-17T20:27:05.470Z,100.00
2023-02-17T20:29:35.592Z,100.00
2023-02-17T20:32:03.681Z,100.00
2023-02-17T20:34:39.381Z,100.00
2023-02-17T20:37:08.995Z,100.00
2023-02-17T20:39:38.833Z,100.00
2023-02-17T20:42:07.022Z,100.00
2023-02-17T20:44:35.554Z,100.00
2023-02-17T20:47:03.874Z,100.00
2023-02-17T20:49:31.635Z,100.00
2023-02-17T20:51:59.517Z,100.00
2023-02-17T20:54:27.468Z,100.00
2023-02-17T20:56:57.845Z,100.00
2023-02-17T20:59:26.005Z,100.00
2023-02-17T21:01:53.924Z,100.00
2023-02-17T21:04:21.777Z,100.00
2023-02-17T21:06:50.868Z,100.00
2023-02-17T21:09:19.479Z,100.00
2023-02-17T21:11:47.969Z,100.00
2023-02-17T21:14:16.359Z,100.00
2023-02-17T21:16:44.987Z,100.00
2023-02-17T21:19:13.140Z,100.00
2023-02-17T21:21:41.143Z,100.00
2023-02-17T21:24:09.356Z,100.00
2023-02-17T21:26:37.308Z,100.00
2023-02-17T21:29:05.540Z,100.00
2023-02-17T21:31:33.925Z,100.00
2023-02-17T21:34:02.021Z,100.00
2023-02-17T21:36:30.332Z,100.00
2023-02-17T21:38:59.207Z,100.00
2023-02-17T21:41:27.784Z,100.00
2023-02-17T21:44:14.570Z,100.00
2023-02-17T21:46:43.451Z,100.00
2023-02-17T21:49:12.694Z,100.00
2023-02-17T21:51:41.396Z,100.00
2023-02-17T21:54:10.626Z,100.00
2023-02-17T21:56:38.521Z,100.00
2023-02-17T21:59:06.881Z,100.00
2023-02-17T22:01:35.202Z,100.00
2023-02-17T22:04:03.429Z,100.00
2023-02-17T22:06:36.505Z,100.00
2023-02-17T22:09:06.996Z,100.00
2023-02-17T22:11:38.721Z,100.00
2023-02-17T22:14:14.712Z,100.00
2023-02-17T22:16:44.114Z,100.00
2023-02-17T22:19:15.858Z,100.00
2023-02-17T22:21:44.714Z,100.00
2023-02-17T22:24:13.669Z,100.00
2023-02-17T22:26:42.726Z,100.00
2023-02-17T22:29:10.566Z,100.00
2023-02-17T22:31:38.462Z,100.00
2023-02-17T22:34:10.030Z,100.00
2023-02-17T22:36:38.596Z,100.00
2023-02-17T22:39:08.486Z,100.00
2023-02-17T22:41:36.563Z,100.00
2023-02-17T22:44:04.594Z,100.00
2023-02-17T22:46:33.649Z,100.00
2023-02-17T22:49:01.611Z,100.00
2023-02-17T22:51:40.080Z,100.00
2023-02-17T22:54:09.248Z,100.00
2023-02-17T22:56:37.391Z,100.00
2023-02-17T22:59:06.118Z,100.00
2023-02-17T23:01:36.472Z,100.00
2023-02-17T23:04:05.473Z,100.00
2023-02-17T23:06:36.297Z,100.00
2023-02-17T23:09:05.979Z,100.00
2023-02-17T23:11:55.092Z,100.00
2023-02-17T23:14:34.514Z,100.00
2023-02-17T23:17:09.473Z,100.00
2023-02-17T23:19:38.712Z,100.00
2023-02-17T23:22:10.513Z,100.00
2023-02-17T23:24:38.307Z,100.00
2023-02-17T23:34:44.119Z,100.00
2023-02-17T23:37:11.925Z,100.00
2023-02-17T23:39:39.961Z,100.00
2023-02-17T23:42:07.769Z,100.00
2023-02-17T23:44:35.692Z,100.00
2023-02-17T23:47:04.455Z,100.00
2023-02-17T23:49:32.275Z,100.00
2023-02-17T23:52:00.606Z,100.00
2023-02-17T23:54:28.874Z,100.00
2023-02-17T23:56:56.752Z,100.00
2023-02-17T23:59:24.488Z,100.00
